Time;durP1;ratioP1;P1;durP2;ratioP2;P2;SDS_P1;SDS_P2;PMS_P1;PMS_P2;Temp;Humidity;BMP_temperature;BMP_pressure;BME280_temperature;BME280_humidity;BME280_pressure;Samples;Min_cycle;Max_cycle;Signal;HPM_P1;HPM_P2
2023/12/17 00:02:26;;;;;;;21.10;11.90;;;;;;;4.40;100.00;100786.11;109539;1251;59790;-73
2023/12/17 00:04:52;;;;;;;15.20;11.50;;;;;;;4.39;100.00;100786.10;109612;1251;60044;-73
2023/12/17 00:07:19;;;;;;;18.40;11.80;;;;;;;4.41;100.00;100787.50;109562;1251;67810;-73
2023/12/17 00:09:45;;;;;;;21.90;11.60;;;;;;;4.42;100.00;100778.33;109581;1251;61001;-72
2023/12/17 00:12:12;;;;;;;16.70;11.30;;;;;;;4.43;100.00;100767.76;109582;1251;65197;-72
2023/12/17 00:14:41;;;;;;;17.30;11.50;;;;;;;4.45;100.00;100761.39;109503;1251;59783;-73
2023/12/17 00:17:08;;;;;;;15.90;11.40;;;;;;;4.46;100.00;100768.24;109389;1251;59856;-73
2023/12/17 00:19:34;;;;;;;19.60;12.60;;;;;;;4.48;100.00;100760.30;109565;1251;67795;-73
2023/12/17 00:22:01;;;;;;;16.70;12.10;;;;;;;4.50;100.00;100749.89;109569;1251;60116;-73
2023/12/17 00:24:27;;;;;;;18.70;11.60;;;;;;;4.50;100.00;100748.65;109283;1251;62970;-73
2023/12/17 00:26:56;;;;;;;17.10;12.20;;;;;;;4.50;100.00;100737.21;109537;1251;60088;-73
2023/12/17 00:29:23;;;;;;;16.40;11.00;;;;;;;4.51;100.00;100731.73;109563;1253;60142;-73
2023/12/17 00:31:50;;;;;;;20.20;11.90;;;;;;;4.52;100.00;100732.25;109531;1255;75777;-73
2023/12/17 00:34:16;;;;;;;18.30;11.80;;;;;;;4.52;100.00;100730.33;109589;1251;61284;-73
2023/12/17 00:36:43;;;;;;;17.00;11.80;;;;;;;4.54;100.00;100733.09;109563;1251;65057;-73
2023/12/17 00:39:10;;;;;;;19.30;12.00;;;;;;;4.56;100.00;100724.98;109496;1251;59763;-72
2023/12/17 00:41:37;;;;;;;14.60;10.70;;;;;;;4.58;100.00;100729.53;109555;1251;59654;-72
2023/12/17 00:44:03;;;;;;;15.40;10.20;;;;;;;4.60;100.00;100733.19;109310;1251;67354;-74
2023/12/17 00:46:30;;;;;;;18.70;11.40;;;;;;;4.62;100.00;100734.58;109540;1252;61106;-74
2023/12/17 00:48:57;;;;;;;16.40;10.90;;;;;;;4.64;100.00;100734.20;109514;1251;65024;-73
2023/12/17 00:51:24;;;;;;;16.50;11.00;;;;;;;4.65;100.00;100729.96;109525;1251;59838;-73
2023/12/17 00:53:50;;;;;;;18.20;11.10;;;;;;;4.65;100.00;100726.78;109578;1251;59827;-74
2023/12/17 00:56:17;;;;;;;19.50;12.10;;;;;;;4.65;100.00;100718.70;109550;1251;75796;-74
2023/12/17 00:58:44;;;;;;;14.30;11.40;;;;;;;4.66;100.00;100711.47;109583;1251;61079;-74
2023/12/17 01:01:10;;;;;;;16.70;12.00;;;;;;;4.65;100.00;100709.19;109576;1251;63712;-74
2023/12/17 01:03:37;;;;;;;15.30;12.40;;;;;;;4.64;100.00;100711.30;109514;1251;60025;-74
2023/12/17 01:06:04;;;;;;;16.10;11.10;;;;;;;4.63;100.00;100715.54;109563;1251;60268;-73
2023/12/17 01:08:30;;;;;;;14.90;12.30;;;;;;;4.63;100.00;100718.36;109582;1251;68153;-73
2023/12/17 01:10:57;;;;;;;15.70;11.20;;;;;;;4.63;100.00;100719.06;109596;1251;61180;-75
2023/12/17 01:13:23;;;;;;;17.90;13.60;;;;;;;4.63;100.00;100715.71;109570;1251;63834;-73
2023/12/17 01:15:50;;;;;;;21.40;13.40;;;;;;;4.62;100.00;100713.96;109512;1251;60124;-74
2023/12/17 01:18:16;;;;;;;16.90;12.10;;;;;;;4.62;100.00;100713.25;109586;1251;59783;-73
2023/12/17 01:20:43;;;;;;;16.60;12.10;;;;;;;4.62;100.00;100718.02;109565;1253;68016;-73
2023/12/17 01:23:10;;;;;;;18.70;12.30;;;;;;;4.62;100.00;100714.67;109581;1251;60823;-73
2023/12/17 01:25:36;;;;;;;17.60;11.60;;;;;;;4.62;100.00;100707.27;109537;1251;65041;-73
2023/12/17 01:28:03;;;;;;;16.40;11.40;;;;;;;4.62;100.00;100705.00;109537;1251;59712;-74
2023/12/17 01:30:29;;;;;;;19.00;11.70;;;;;;;4.62;100.00;100708.88;109541;1251;60596;-73
2023/12/17 01:32:56;;;;;;;17.10;10.80;;;;;;;4.61;100.00;100712.05;109497;1251;67756;-74
2023/12/17 01:35:23;;;;;;;16.30;12.30;;;;;;;4.60;100.00;100708.52;109588;1251;60207;-74
2023/12/17 01:37:49;;;;;;;15.70;10.80;;;;;;;4.61;100.00;100715.39;109581;1251;65285;-74
2023/12/17 01:40:16;;;;;;;12.60;10.50;;;;;;;4.62;100.00;100723.13;109546;1251;59777;-74
2023/12/17 01:42:42;;;;;;;18.20;11.90;;;;;;;4.63;100.00;100724.52;109561;1251;60198;-75
2023/12/17 01:45:09;;;;;;;14.80;11.40;;;;;;;4.63;100.00;100722.94;109566;1251;66806;-74
2023/12/17 01:47:36;;;;;;;14.50;10.80;;;;;;;4.64;100.00;100728.21;109569;1251;60040;-72
2023/12/17 01:50:03;;;;;;;15.60;11.10;;;;;;;4.66;100.00;100724.48;109537;1251;65011;-73
2023/12/17 01:52:30;;;;;;;17.40;12.10;;;;;;;4.67;100.00;100722.88;109520;1251;59786;-73
2023/12/17 01:54:57;;;;;;;20.20;12.30;;;;;;;4.67;100.00;100716.19;109569;1251;59860;-73
2023/12/17 01:57:23;;;;;;;16.10;12.20;;;;;;;4.67;100.00;100720.25;109418;1250;65537;-73
2023/12/17 01:59:50;;;;;;;16.70;11.50;;;;;;;4.66;100.00;100718.33;109545;1251;61450;-73
2023/12/17 02:02:17;;;;;;;18.90;12.00;;;;;;;4.65;100.00;100721.33;109540;1251;64047;-73
2023/12/17 02:04:44;;;;;;;16.30;10.50;;;;;;;4.64;100.00;100723.28;109543;1251;59757;-73
2023/12/17 02:07:10;;;;;;;17.40;11.30;;;;;;;4.63;100.00;100717.13;109556;1251;59888;-73
2023/12/17 02:09:37;;;;;;;17.80;11.80;;;;;;;4.63;100.00;100713.42;109514;1251;67768;-73
2023/12/17 02:12:04;;;;;;;18.90;11.60;;;;;;;4.61;100.00;100709.93;109594;1251;61097;-73
2023/12/17 02:14:31;;;;;;;13.50;11.50;;;;;;;4.61;100.00;100708.00;109217;1251;65247;-73
2023/12/17 02:16:58;;;;;;;16.60;12.00;;;;;;;4.60;100.00;100710.48;109592;1251;59832;-73
2023/12/17 02:19:24;;;;;;;16.40;12.40;;;;;;;4.59;100.00;100718.07;109529;1251;59873;-73
2023/12/17 02:21:51;;;;;;;13.70;10.90;;;;;;;4.58;100.00;100721.42;109597;1251;66844;-74
2023/12/17 02:24:17;;;;;;;14.30;10.90;;;;;;;4.56;100.00;100720.92;109594;1251;60040;-73
2023/12/17 02:26:44;;;;;;;15.00;12.20;;;;;;;4.55;100.00;100721.29;109559;1251;65021;-73
2023/12/17 02:29:11;;;;;;;13.60;11.40;;;;;;;4.51;100.00;100723.64;109578;1251;59802;-73
2023/12/17 02:31:37;;;;;;;15.20;10.90;;;;;;;4.50;100.00;100722.60;109591;1251;60220;-73
2023/12/17 02:34:04;;;;;;;15.50;10.20;;;;;;;4.47;100.00;100713.86;109510;1251;66876;-74
2023/12/17 02:36:30;;;;;;;19.30;12.00;;;;;;;4.44;100.00;100709.84;109559;1251;60020;-73
2023/12/17 02:38:57;;;;;;;15.30;10.30;;;;;;;4.41;100.00;100709.89;109360;1251;65039;-73
2023/12/17 02:41:23;;;;;;;13.60;11.10;;;;;;;4.38;100.00;100712.91;109559;1251;59836;-73
2023/12/17 02:43:50;;;;;;;16.90;11.20;;;;;;;4.34;100.00;100713.67;109564;1251;59810;-74
2023/12/17 02:46:17;;;;;;;15.50;10.70;;;;;;;4.30;100.00;100716.38;109358;1251;67971;-73
2023/12/17 02:48:43;;;;;;;18.00;10.70;;;;;;;4.27;100.00;100712.19;109588;1251;59992;-74
2023/12/17 02:51:10;;;;;;;14.60;10.70;;;;;;;4.25;100.00;100706.23;109561;1251;62765;-74
2023/12/17 02:53:36;;;;;;;13.90;10.50;;;;;;;4.22;100.00;100704.86;109534;1251;59709;-73
2023/12/17 02:56:03;;;;;;;13.80;11.20;;;;;;;4.19;100.00;100708.23;109580;1251;59745;-73
2023/12/17 02:58:30;;;;;;;15.00;10.50;;;;;;;4.16;100.00;100711.27;109578;1251;66809;-72
2023/12/17 03:00:56;;;;;;;13.70;9.40;;;;;;;4.13;100.00;100710.08;109575;1251;60007;-73
2023/12/17 03:03:23;;;;;;;17.20;10.70;;;;;;;4.10;100.00;100708.89;109568;1251;63972;-73
2023/12/17 03:05:50;;;;;;;15.10;10.90;;;;;;;4.07;100.00;100709.45;109552;1251;59771;-73
2023/12/17 03:08:16;;;;;;;14.70;10.80;;;;;;;4.06;100.00;100706.66;109567;1251;59747;-74
2023/12/17 03:10:43;;;;;;;15.50;10.80;;;;;;;4.04;100.00;100711.79;109555;1251;67840;-72
2023/12/17 03:13:10;;;;;;;13.90;10.80;;;;;;;4.03;100.00;100719.00;109612;1251;61183;-73
2023/12/17 03:15:37;;;;;;;18.20;10.50;;;;;;;4.02;100.00;100719.19;109607;1251;63747;-72
2023/12/17 03:18:04;;;;;;;14.90;10.40;;;;;;;4.00;100.00;100717.29;109532;1251;59748;-73
2023/12/17 03:20:31;;;;;;;15.10;10.30;;;;;;;3.97;100.00;100719.25;109585;1251;59904;-74
2023/12/17 03:22:58;;;;;;;15.90;11.60;;;;;;;3.96;100.00;100712.23;109556;1251;66567;-73
2023/12/17 03:25:26;;;;;;;16.70;11.40;;;;;;;3.96;100.00;100706.42;109561;1251;60011;-73
2023/12/17 03:27:52;;;;;;;15.80;11.60;;;;;;;3.96;100.00;100697.83;109586;1251;65362;-73
2023/12/17 03:30:19;;;;;;;15.20;10.60;;;;;;;3.96;100.00;100691.67;109505;1251;60112;-73
2023/12/17 03:32:46;;;;;;;16.30;10.50;;;;;;;3.93;100.00;100684.31;109320;1251;60030;-74
2023/12/17 03:35:12;;;;;;;14.60;10.10;;;;;;;3.92;100.00;100685.20;109581;1250;67842;-74
2023/12/17 03:37:39;;;;;;;15.70;11.30;;;;;;;3.91;100.00;100693.66;109418;1251;60183;-72
2023/12/17 03:40:06;;;;;;;17.10;11.60;;;;;;;3.90;100.00;100694.20;109538;1251;65163;-73
2023/12/17 03:42:33;;;;;;;15.50;11.00;;;;;;;3.90;100.00;100685.05;109554;1251;59756;-73
2023/12/17 03:45:01;;;;;;;17.90;11.80;;;;;;;3.89;100.00;100683.13;109629;1251;60690;-74
2023/12/17 03:47:27;;;;;;;13.60;10.50;;;;;;;3.88;100.00;100681.55;109555;1251;66763;-73
2023/12/17 03:49:54;;;;;;;14.10;10.40;;;;;;;3.87;100.00;100672.78;109603;1251;60209;-73
2023/12/17 03:52:21;;;;;;;15.30;10.20;;;;;;;3.85;100.00;100662.96;109574;1251;64053;-74
2023/12/17 03:54:47;;;;;;;13.90;10.30;;;;;;;3.86;100.00;100657.33;109487;1251;59812;-73
2023/12/17 03:57:14;;;;;;;13.20;10.20;;;;;;;3.86;100.00;100660.13;109134;1251;163007;-73
2023/12/17 03:59:41;;;;;;;13.10;9.60;;;;;;;3.87;100.00;100658.19;109583;1251;66795;-74
2023/12/17 04:02:07;;;;;;;16.80;10.00;;;;;;;3.88;100.00;100662.40;109549;1251;60232;-74
2023/12/17 04:04:34;;;;;;;18.60;10.90;;;;;;;3.88;100.00;100652.91;109542;1251;65067;-73
2023/12/17 04:07:00;;;;;;;17.10;11.20;;;;;;;3.86;100.00;100639.73;109545;1251;59792;-73
2023/12/17 04:09:27;;;;;;;17.20;10.60;;;;;;;3.86;100.00;100631.65;109580;1251;59866;-73
2023/12/17 04:11:54;;;;;;;16.60;11.00;;;;;;;3.87;100.00;100629.52;109565;1251;67885;-73
2023/12/17 04:14:20;;;;;;;17.90;10.60;;;;;;;3.86;100.00;100633.22;109568;1251;59997;-73
2023/12/17 04:16:47;;;;;;;14.30;9.70;;;;;;;3.86;100.00;100634.98;109572;1251;63877;-72
2023/12/17 04:19:13;;;;;;;11.70;9.30;;;;;;;3.86;100.00;100636.75;109566;1251;59680;-73
2023/12/17 04:21:40;;;;;;;15.70;10.80;;;;;;;3.86;100.00;100636.75;109619;1251;59737;-72
2023/12/17 04:24:06;;;;;;;14.20;9.30;;;;;;;3.85;100.00;100643.28;109524;1251;67585;-74
2023/12/17 04:26:34;;;;;;;13.20;10.30;;;;;;;3.84;100.00;100647.31;109594;1251;61104;-74
2023/12/17 04:29:01;;;;;;;14.60;9.50;;;;;;;3.84;100.00;100645.04;109560;1251;64042;-73
2023/12/17 04:31:27;;;;;;;13.90;9.50;;;;;;;3.84;100.00;100648.73;109528;1251;59984;-74
2023/12/17 04:33:54;;;;;;;15.00;10.00;;;;;;;3.84;100.00;100646.44;109601;1251;59815;-75
2023/12/17 04:36:21;;;;;;;18.30;10.90;;;;;;;3.85;100.00;100639.22;109518;1251;67058;-72
2023/12/17 04:38:48;;;;;;;18.50;10.40;;;;;;;3.83;100.00;100640.66;109544;1251;61070;-72
2023/12/17 04:41:15;;;;;;;12.30;9.30;;;;;;;3.81;100.00;100645.61;109266;1251;65232;-71
2023/12/17 04:43:41;;;;;;;13.40;9.30;;;;;;;3.82;100.00;100638.56;109533;1251;59822;-71
2023/12/17 04:46:09;;;;;;;13.00;10.00;;;;;;;3.85;100.00;100632.55;109564;1251;59806;-73
2023/12/17 04:48:36;;;;;;;17.60;10.40;;;;;;;3.84;100.00;100635.37;109552;1251;67769;-72
2023/12/17 04:51:02;;;;;;;14.60;9.90;;;;;;;3.83;100.00;100629.23;109565;1251;61180;-72
2023/12/17 04:53:29;;;;;;;14.70;9.30;;;;;;;3.83;100.00;100628.17;109546;1251;65299;-73
2023/12/17 04:55:56;;;;;;;17.20;10.60;;;;;;;3.84;100.00;100620.58;109418;1251;59831;-72
2023/12/17 04:58:24;;;;;;;13.60;10.20;;;;;;;3.84;100.00;100622.36;109540;1251;59723;-73
2023/12/17 05:00:51;;;;;;;17.10;10.30;;;;;;;3.84;100.00;100620.08;109600;1251;67807;-73
2023/12/17 05:03:17;;;;;;;12.60;9.80;;;;;;;3.86;100.00;100624.45;109587;1251;60908;-73
2023/12/17 05:05:44;;;;;;;15.50;9.50;;;;;;;3.85;100.00;100628.33;109528;1251;63703;-73
2023/12/17 05:08:11;;;;;;;13.40;9.80;;;;;;;3.85;100.00;100629.38;109557;1251;59901;-73
2023/12/17 05:10:37;;;;;;;12.80;9.30;;;;;;;3.88;100.00;100631.61;109549;1251;59740;-73
2023/12/17 05:13:04;;;;;;;12.90;10.20;;;;;;;3.89;100.00;100631.25;109422;1251;68100;-73
2023/12/17 05:15:31;;;;;;;12.50;9.80;;;;;;;3.88;100.00;100627.41;109360;1251;60149;-72
2023/12/17 05:17:58;;;;;;;15.30;10.10;;;;;;;3.89;100.00;100620.55;109534;1251;65014;-73
2023/12/17 05:20:24;;;;;;;18.80;10.80;;;;;;;3.89;100.00;100627.73;109499;1251;59796;-73
2023/12/17 05:22:51;;;;;;;10.20;8.60;;;;;;;3.88;100.00;100631.62;109605;1251;59967;-73
2023/12/17 05:25:17;;;;;;;13.40;9.30;;;;;;;3.88;100.00;100626.70;109539;1251;66750;-73
2023/12/17 05:27:44;;;;;;;14.30;9.30;;;;;;;3.87;100.00;100626.36;109555;1251;60282;-73
2023/12/17 05:30:11;;;;;;;12.10;9.20;;;;;;;3.86;100.00;100626.91;109570;1251;63996;-73
2023/12/17 05:32:38;;;;;;;12.90;9.90;;;;;;;3.83;100.00;100624.48;109560;1251;59758;-73
2023/12/17 05:35:05;;;;;;;15.30;10.60;;;;;;;3.82;100.00;100626.08;108765;1251;1002612;-73
2023/12/17 05:37:32;;;;;;;17.30;10.80;;;;;;;3.80;100.00;100627.35;109577;1251;66983;-74
2023/12/17 05:39:58;;;;;;;12.30;9.40;;;;;;;3.79;100.00;100630.87;109574;1251;60994;-73
2023/12/17 05:42:25;;;;;;;15.10;10.80;;;;;;;3.77;100.00;100625.09;109553;1251;64022;-73
2023/12/17 05:44:52;;;;;;;13.50;10.20;;;;;;;3.76;100.00;100629.32;109520;1251;59694;-73
2023/12/17 05:47:18;;;;;;;15.20;10.40;;;;;;;3.77;100.00;100629.50;109603;1251;59848;-73
2023/12/17 05:49:45;;;;;;;15.80;10.00;;;;;;;3.77;100.00;100628.80;109541;1251;68236;-73
2023/12/17 05:52:11;;;;;;;13.40;9.70;;;;;;;3.76;100.00;100629.14;109565;1251;60159;-73
2023/12/17 05:54:38;;;;;;;12.50;9.60;;;;;;;3.76;100.00;100627.92;109574;1251;64107;-73
2023/12/17 05:57:05;;;;;;;12.30;10.30;;;;;;;3.75;100.00;100627.92;109567;1251;59855;-74
2023/12/17 05:59:32;;;;;;;13.80;9.40;;;;;;;3.75;100.00;100626.87;109583;1251;59702;-73
2023/12/17 06:01:59;;;;;;;11.50;10.30;;;;;;;3.78;100.00;100626.48;109573;1251;66730;-74
2023/12/17 06:04:26;;;;;;;14.70;10.90;;;;;;;3.79;100.00;100631.21;109551;1251;60014;-73
2023/12/17 06:06:55;;;;;;;18.30;11.40;;;;;;;3.79;100.00;100638.96;109543;1251;64011;-73
2023/12/17 06:09:22;;;;;;;13.90;10.50;;;;;;;3.78;100.00;100643.36;109511;1251;59760;-73
2023/12/17 06:11:52;;;;;;;16.20;10.80;;;;;;;3.76;100.00;100646.20;109605;1251;59801;-73
2023/12/17 06:14:19;;;;;;;16.90;11.00;;;;;;;3.75;100.00;100646.21;109523;1251;68001;-73
2023/12/17 06:16:46;;;;;;;14.40;10.70;;;;;;;3.75;100.00;100646.92;109575;1251;60027;-73
2023/12/17 06:19:13;;;;;;;12.90;10.70;;;;;;;3.74;100.00;100650.61;109338;1251;64139;-73
2023/12/17 06:21:39;;;;;;;14.80;11.30;;;;;;;3.74;100.00;100643.94;109542;1251;59788;-72
2023/12/17 06:24:07;;;;;;;15.70;9.90;;;;;;;3.75;100.00;100636.89;109553;1251;59967;-72
2023/12/17 06:26:37;;;;;;;16.30;10.90;;;;;;;3.76;100.00;100628.27;109574;1251;67828;-73
2023/12/17 06:29:04;;;;;;;;;;;;;;;3.76;100.00;100628.62;109577;1251;60133;-73
2023/12/17 06:31:30;;;;;;;13.70;11.20;;;;;;;3.76;100.00;100625.10;109613;1251;64854;-73
2023/12/17 06:33:57;;;;;;;14.40;10.00;;;;;;;3.76;100.00;100623.52;109559;1251;59834;-72
2023/12/17 06:36:24;;;;;;;14.90;10.50;;;;;;;3.74;100.00;100625.13;109349;1256;59826;-73
2023/12/17 06:38:50;;;;;;;14.00;9.80;;;;;;;3.74;100.00;100623.73;109551;1251;67931;-73
2023/12/17 06:41:17;;;;;;;17.00;11.40;;;;;;;3.76;100.00;100628.27;109606;1250;60018;-73
2023/12/17 06:43:44;;;;;;;14.60;10.30;;;;;;;3.77;100.00;100633.70;109560;1251;65046;-74
2023/12/17 06:46:15;;;;;;;13.60;10.50;;;;;;;3.78;100.00;100632.98;109531;1251;59947;-73
2023/12/17 06:48:43;;;;;;;13.30;10.20;;;;;;;3.78;100.00;100629.48;109581;1251;59660;-73
2023/12/17 06:51:12;;;;;;;14.80;11.80;;;;;;;3.81;100.00;100630.31;109620;1251;66822;-72
2023/12/17 06:53:38;;;;;;;14.50;10.70;;;;;;;3.83;100.00;100632.39;109570;1251;60378;-73
2023/12/17 06:56:06;;;;;;;13.50;10.60;;;;;;;3.86;100.00;100632.00;109556;1251;65354;-73
2023/12/17 06:58:33;;;;;;;15.20;10.10;;;;;;;3.89;100.00;100636.88;109304;1251;59848;-73
2023/12/17 07:00:59;;;;;;;14.20;10.60;;;;;;;3.92;100.00;100638.08;109595;1251;59816;-74
2023/12/17 07:03:26;;;;;;;16.30;11.30;;;;;;;3.94;100.00;100646.83;109589;1251;68295;-74
2023/12/17 07:05:53;;;;;;;16.70;9.90;;;;;;;3.95;100.00;100655.44;109563;1251;60409;-72
2023/12/17 07:08:20;;;;;;;13.50;11.00;;;;;;;3.98;100.00;100657.16;109518;1251;65189;-72
2023/12/17 07:10:46;;;;;;;13.80;10.80;;;;;;;4.01;100.00;100661.35;109550;1251;59803;-76
2023/12/17 07:13:13;;;;;;;13.80;11.00;;;;;;;4.04;100.00;100656.56;109528;1251;59848;-73
2023/12/17 07:15:39;;;;;;;13.00;10.40;;;;;;;4.06;100.00;100662.70;109565;1251;66749;-73
2023/12/17 07:18:06;;;;;;;14.00;11.20;;;;;;;4.07;100.00;100666.36;109596;1251;61101;-74
2023/12/17 07:20:33;;;;;;;15.90;11.90;;;;;;;4.09;100.00;100669.50;109577;1251;64009;-73
2023/12/17 07:22:59;;;;;;;18.30;11.50;;;;;;;4.12;100.00;100672.27;109541;1251;59821;-74
2023/12/17 07:25:26;;;;;;;14.00;10.90;;;;;;;4.15;100.00;100678.58;108491;1256;1002193;-74
2023/12/17 07:27:54;;;;;;;15.20;11.30;;;;;;;4.19;100.00;100685.55;109523;1251;67768;-74
2023/12/17 07:30:20;;;;;;;14.00;10.80;;;;;;;4.22;100.00;100682.88;109589;1251;61092;-73
2023/12/17 07:32:47;;;;;;;13.20;9.80;;;;;;;4.24;100.00;100684.96;109528;1251;64821;-74
2023/12/17 07:35:14;;;;;;;16.30;11.50;;;;;;;4.28;100.00;100687.02;109548;1251;59846;-73
2023/12/17 07:37:41;;;;;;;13.00;10.60;;;;;;;4.31;100.00;100681.00;109368;1251;59843;-74
2023/12/17 07:40:07;;;;;;;13.60;8.80;;;;;;;4.33;100.00;100678.85;109557;1251;67809;-74
2023/12/17 07:42:34;;;;;;;14.30;9.70;;;;;;;4.35;100.00;100688.50;109539;1251;60026;-73
2023/12/17 07:45:01;;;;;;;14.10;10.10;;;;;;;4.38;100.00;100689.69;109577;1251;63986;-74
2023/12/17 07:47:30;;;;;;;12.70;9.90;;;;;;;4.40;100.00;100695.27;109554;1251;59813;-73
2023/12/17 07:49:57;;;;;;;13.40;9.80;;;;;;;4.42;100.00;100696.48;109576;1251;59849;-73
2023/12/17 07:52:24;;;;;;;14.00;8.90;;;;;;;4.46;100.00;100697.49;109576;1251;66716;-72
2023/12/17 07:54:52;;;;;;;12.60;9.70;;;;;;;4.50;100.00;100695.67;109578;1251;59992;-73
2023/12/17 07:57:19;;;;;;;13.40;9.40;;;;;;;4.53;100.00;100693.33;109561;1251;65136;-73
2023/12/17 07:59:50;;;;;;;13.90;9.60;;;;;;;4.58;100.00;100700.65;109538;1254;60029;-73
2023/12/17 08:02:17;;;;;;;12.20;10.00;;;;;;;4.65;100.00;100700.02;109534;1251;59669;-73
2023/12/17 08:04:45;;;;;;;11.70;9.40;;;;;;;4.73;100.00;100700.95;109538;1251;66936;-72
2023/12/17 08:07:12;;;;;;;12.10;8.40;;;;;;;4.83;100.00;100692.18;109567;1251;61316;-73
2023/12/17 08:09:39;;;;;;;12.10;9.00;;;;;;;4.93;100.00;100687.08;109525;1251;65073;-72
2023/12/17 08:12:07;;;;;;;12.90;8.30;;;;;;;5.02;100.00;100684.98;109559;1251;59805;-73
2023/12/17 08:14:33;;;;;;;9.70;8.60;;;;;;;5.12;100.00;100685.34;109551;1251;60104;-73
2023/12/17 08:17:00;;;;;;;12.60;9.20;;;;;;;5.22;100.00;100689.39;109548;1251;66478;-73
2023/12/17 08:19:27;;;;;;;10.70;9.30;;;;;;;5.33;100.00;100689.73;109533;1251;61334;-73
2023/12/17 08:21:55;;;;;;;10.70;8.70;;;;;;;5.41;100.00;100688.52;109549;1251;65392;-73
2023/12/17 08:24:21;;;;;;;13.40;10.00;;;;;;;5.47;100.00;100685.76;109551;1251;59812;-73
2023/12/17 08:26:50;;;;;;;12.10;8.80;;;;;;;5.52;100.00;100686.73;109249;1251;59849;-73
2023/12/17 08:29:17;;;;;;;14.10;8.80;;;;;;;5.55;100.00;100690.38;109583;1251;68059;-73
2023/12/17 08:31:44;;;;;;;10.40;8.40;;;;;;;5.58;100.00;100685.92;109438;1251;61056;-73
2023/12/17 08:34:11;;;;;;;10.10;8.00;;;;;;;5.60;100.00;100692.20;109545;1251;65035;-74
2023/12/17 08:36:41;;;;;;;10.10;7.90;;;;;;;5.62;100.00;100696.75;109561;1251;59869;-73
2023/12/17 08:39:08;;;;;;;10.10;9.10;;;;;;;5.63;100.00;100701.14;109584;1251;59933;-73
2023/12/17 08:41:35;;;;;;;10.60;8.00;;;;;;;5.64;100.00;100705.02;109553;1251;66756;-73
2023/12/17 08:44:01;;;;;;;11.50;8.80;;;;;;;5.64;100.00;100705.20;109570;1250;60341;-74
2023/12/17 08:46:28;;;;;;;11.40;9.30;;;;;;;5.66;100.00;100709.39;109546;1251;65409;-74
2023/12/17 08:48:55;;;;;;;10.40;9.00;;;;;;;5.67;100.00;100705.66;109545;1251;59734;-74
2023/12/17 08:51:22;;;;;;;10.60;8.60;;;;;;;5.68;100.00;100705.64;109388;1251;60745;-74
2023/12/17 08:53:48;;;;;;;10.40;9.00;;;;;;;5.71;100.00;100701.87;109626;1251;67966;-74
2023/12/17 08:56:15;;;;;;;11.00;8.90;;;;;;;5.77;100.00;100702.11;109590;1251;61140;-73
2023/12/17 08:58:41;;;;;;;9.10;7.90;;;;;;;5.82;100.00;100704.30;109572;1251;64792;-74
2023/12/17 09:01:08;;;;;;;12.40;8.50;;;;;;;5.86;100.00;100705.81;109551;1251;59790;-74
2023/12/17 09:03:34;;;;;;;10.00;8.80;;;;;;;5.91;100.00;100706.58;109603;1251;59781;-73
2023/12/17 09:06:01;;;;;;;10.10;7.60;;;;;;;5.96;100.00;100705.10;109579;1251;66613;-74
2023/12/17 09:08:28;;;;;;;11.80;9.30;;;;;;;6.00;100.00;100706.80;109528;1251;60106;-73
2023/12/17 09:10:54;;;;;;;11.00;8.90;;;;;;;6.06;100.00;100710.38;109550;1251;65191;-75
2023/12/17 09:13:22;;;;;;;11.10;8.80;;;;;;;6.10;100.00;100709.94;109566;1251;60164;-73
2023/12/17 09:15:49;;;;;;;10.80;8.80;;;;;;;6.15;100.00;100717.23;109575;1251;59846;-74
2023/12/17 09:18:16;;;;;;;12.10;8.80;;;;;;;6.21;100.00;100720.48;109580;1251;67793;-74
2023/12/17 09:20:43;;;;;;;11.60;8.70;;;;;;;6.24;100.00;100715.66;109539;1251;60113;-72
2023/12/17 09:23:09;;;;;;;10.30;8.90;;;;;;;6.26;100.00;100712.08;109571;1251;63925;-74
2023/12/17 09:25:36;;;;;;;14.30;9.60;;;;;;;6.26;100.00;100711.36;109576;1253;60017;-73
2023/12/17 09:28:04;;;;;;;12.50;9.40;;;;;;;6.26;100.00;100707.31;109566;1251;59862;-72
2023/12/17 09:30:30;;;;;;;11.80;8.90;;;;;;;6.27;100.00;100704.47;109577;1250;66832;-73
2023/12/17 09:32:57;;;;;;;12.10;8.70;;;;;;;6.31;100.00;100707.02;109589;1251;59978;-73
2023/12/17 09:35:24;;;;;;;15.00;10.10;;;;;;;6.37;100.00;100705.83;109588;1251;64181;-73
2023/12/17 09:37:50;;;;;;;10.80;9.10;;;;;;;6.44;100.00;100704.43;109611;1251;59893;-74
2023/12/17 09:40:17;;;;;;;10.90;9.60;;;;;;;6.48;100.00;100702.92;109546;1251;59831;-74
2023/12/17 09:42:44;;;;;;;12.10;8.70;;;;;;;6.52;100.00;100702.85;109595;1251;66910;-72
2023/12/17 09:45:14;;;;;;;9.70;8.40;;;;;;;6.52;100.00;100698.77;109611;1250;61226;-72
2023/12/17 09:47:42;;;;;;;12.20;10.10;;;;;;;6.50;100.00;100694.77;109579;1251;65182;-73
2023/12/17 09:50:10;;;;;;;12.60;9.90;;;;;;;6.50;100.00;100698.48;109623;1251;59798;-73
2023/12/17 09:52:41;;;;;;;13.80;10.10;;;;;;;6.52;100.00;100701.96;109655;1251;59802;-73
2023/12/17 09:55:10;;;;;;;15.30;11.30;;;;;;;6.55;100.00;100703.14;109534;1251;66870;-73
2023/12/17 09:57:37;;;;;;;13.10;10.50;;;;;;;6.57;100.00;100708.20;109617;1251;61076;-73
2023/12/17 10:00:07;;;;;;;13.20;10.50;;;;;;;6.57;100.00;100714.39;109583;1251;64722;-72
2023/12/17 10:02:36;;;;;;;12.20;9.40;;;;;;;6.57;100.00;100709.44;109358;1251;59809;-74
2023/12/17 10:05:03;;;;;;;14.00;9.60;;;;;;;6.59;100.00;100704.61;109594;1251;59914;-73
2023/12/17 10:07:30;;;;;;;14.10;9.70;;;;;;;6.62;100.00;100699.45;109386;1251;66848;-74
2023/12/17 10:09:57;;;;;;;11.60;9.00;;;;;;;6.66;100.00;100698.46;109548;1251;60267;-74
2023/12/17 10:12:27;;;;;;;12.60;9.70;;;;;;;6.68;100.00;100701.08;109345;1251;65145;-73
2023/12/17 10:14:55;;;;;;;12.10;9.10;;;;;;;6.69;100.00;100694.50;109511;1251;59772;-73
2023/12/17 10:17:22;;;;;;;12.20;9.50;;;;;;;6.73;100.00;100691.58;109583;1251;59910;-74
2023/12/17 10:19:52;;;;;;;13.60;9.60;;;;;;;6.76;100.00;100691.49;109568;1250;68046;-74
2023/12/17 10:22:20;;;;;;;12.40;9.00;;;;;;;6.80;100.00;100688.40;109576;1251;59918;-73
2023/12/17 10:24:48;;;;;;;11.20;9.90;;;;;;;6.82;100.00;100688.02;109588;1251;65074;-73
2023/12/17 10:27:17;;;;;;;12.00;9.80;;;;;;;6.84;100.00;100685.50;109558;1251;59950;-73
2023/12/17 10:29:51;;;;;;;12.00;9.70;;;;;;;6.87;100.00;100685.95;109578;1251;59699;-75
2023/12/17 10:32:23;;;;;;;10.60;9.50;;;;;;;6.90;100.00;100689.74;109571;1250;68078;-73
2023/12/17 10:34:51;;;;;;;11.70;10.00;;;;;;;6.94;100.00;100685.08;109548;1251;60064;-74
2023/12/17 10:37:19;;;;;;;13.50;10.70;;;;;;;6.98;100.00;100678.23;109593;1251;64307;-74
2023/12/17 10:39:50;;;;;;;13.20;9.60;;;;;;;7.03;100.00;100670.69;109581;1251;59862;-73
2023/12/17 10:42:18;;;;;;;12.30;9.80;;;;;;;7.07;100.00;100667.61;109566;1251;59641;-74
2023/12/17 10:44:47;;;;;;;13.00;10.40;;;;;;;7.13;100.00;100669.04;109553;1250;66814;-73
2023/12/17 10:47:19;;;;;;;12.20;10.30;;;;;;;7.20;100.00;100667.61;109583;1251;61148;-72
2023/12/17 10:49:46;;;;;;;15.70;11.30;;;;;;;7.28;100.00;100666.34;109560;1251;74324;-73
2023/12/17 10:52:13;;;;;;;12.10;10.40;;;;;;;7.36;100.00;100656.94;109597;1251;59800;-74
2023/12/17 10:54:40;;;;;;;12.10;9.10;;;;;;;7.40;100.00;100657.72;109612;1251;59799;-73
2023/12/17 10:57:20;;;;;;;13.80;10.50;;;;;;;7.40;100.00;100660.73;109585;1251;66797;-73
2023/12/17 10:59:49;;;;;;;14.80;10.60;;;;;;;7.37;100.00;100656.74;109547;1250;59858;-74
2023/12/17 11:02:21;;;;;;;14.10;11.00;;;;;;;7.36;100.00;100654.45;109558;1251;64115;-73
2023/12/17 11:04:49;;;;;;;14.00;10.40;;;;;;;7.40;100.00;100655.76;109535;1251;59757;-72